Time;durP1;ratioP1;P1;durP2;ratioP2;P2;SDS_P1;SDS_P2;PMS_P1;PMS_P2;Temp;Humidity;BMP_temperature;BMP_pressure;BME280_temperature;BME280_humidity;BME280_pressure;Samples;Min_cycle;Max_cycle;Signal;HPM_P1;HPM_P2
2023/11/25 00:00:48;;;;;;;2.47;1.70;;;;;2.90;94926.00;;;;5059591;28;20828;-68
2023/11/25 00:03:37;;;;;;;2.63;1.70;;;;;2.70;94929.00;;;;5063589;28;20420;-66
2023/11/25 00:06:27;;;;;;;4.60;3.03;;;;;2.70;94932.00;;;;5065563;28;20462;-66
2023/11/25 00:09:17;;;;;;;3.37;2.27;;;;;3.10;94938.00;;;;5065948;28;20430;-66
2023/11/25 00:12:07;;;;;;;3.03;2.00;;;;;3.30;94945.00;;;;5057009;28;20482;-68
2023/11/25 00:14:57;;;;;;;2.73;1.83;;;;;3.30;94925.00;;;;5063810;28;20418;-67
2023/11/25 00:17:47;;;;;;;3.20;2.03;;;;;3.90;94936.00;;;;5059998;28;20416;-67
2023/11/25 00:20:36;;;;;;;3.53;2.13;;;;;3.90;94933.00;;;;5065090;28;20427;-67
2023/11/25 00:23:26;;;;;;;3.80;2.37;;;;;4.20;94931.00;;;;5067892;28;20814;-67
2023/11/25 00:26:15;;;;;;;3.43;2.17;;;;;2.60;94924.00;;;;5062844;28;20449;-66
2023/11/25 00:29:04;;;;;;;2.80;1.93;;;;;3.60;94932.00;;;;5069201;28;20434;-67
2023/11/25 00:31:56;;;;;;;1.80;1.47;;;;;3.80;94950.00;;;;5057992;28;20952;-67
2023/11/25 00:34:46;;;;;;;2.83;1.93;;;;;3.90;94949.00;;;;5061390;28;20439;-67
2023/11/25 00:37:35;;;;;;;2.03;1.53;;;;;2.90;94964.00;;;;5059043;28;20450;-70
2023/11/25 00:40:25;;;;;;;4.67;3.00;;;;;3.10;94957.00;;;;5054206;28;20437;-68
2023/11/25 00:43:15;;;;;;;2.10;1.60;;;;;3.80;94962.00;;;;5060606;28;20420;-68
2023/11/25 00:46:05;;;;;;;1.93;1.50;;;;;3.80;94972.00;;;;5065603;28;20977;-68
2023/11/25 00:48:55;;;;;;;2.80;1.90;;;;;4.20;94972.00;;;;5063436;28;20423;-69
2023/11/25 00:51:44;;;;;;;2.10;1.60;;;;;3.80;94959.00;;;;5056465;28;20454;-68
2023/11/25 00:54:34;;;;;;;3.33;2.43;;;;;3.80;94953.00;;;;5053760;28;20423;-68
2023/11/25 00:57:24;;;;;;;4.60;3.07;;;;;3.70;94951.00;;;;5053394;28;20438;-68
2023/11/25 01:00:15;;;;;;;4.37;2.77;;;;;3.80;94936.00;;;;5055958;28;20463;-69
2023/11/25 01:03:06;;;;;;;2.00;1.47;;;;;3.70;94930.00;;;;5065792;28;20422;-67
2023/11/25 01:05:57;;;;;;;3.17;2.10;;;;;3.50;94942.00;;;;5059181;28;20462;-67
2023/11/25 01:08:46;;;;;;;2.77;1.80;;;;;3.70;94945.00;;;;5050764;28;20427;-67
2023/11/25 01:11:35;;;;;;;1.67;1.30;;;;;3.60;94956.00;;;;5056765;28;20434;-69
2023/11/25 01:14:25;;;;;;;3.37;2.33;;;;;3.60;94958.00;;;;5059996;28;20927;-70
2023/11/25 01:17:14;;;;;;;2.23;1.60;;;;;2.90;94968.00;;;;5055319;28;20426;-70
2023/11/25 01:20:06;;;;;;;5.60;3.23;;;;;3.10;94945.00;;;;5059346;28;20462;-68
2023/11/25 01:22:57;;;;;;;2.67;2.00;;;;;3.30;94955.00;;;;5055966;28;20420;-70
2023/11/25 01:25:46;;;;;;;1.30;1.17;;;;;3.10;94949.00;;;;5058154;28;20451;-70
2023/11/25 01:28:37;;;;;;;2.27;1.73;;;;;3.30;94939.00;;;;5059046;28;21825;-70
2023/11/25 01:31:26;;;;;;;7.70;4.87;;;;;3.00;94946.00;;;;5061634;28;20430;-70
2023/11/25 01:34:15;;;;;;;2.23;1.70;;;;;3.00;94933.00;;;;5066474;28;20979;-70
2023/11/25 01:37:04;;;;;;;3.40;2.27;;;;;2.70;94931.00;;;;5063360;28;20833;-68
2023/11/25 01:39:55;;;;;;;2.27;1.80;;;;;2.30;94946.00;;;;5051024;28;20447;-69
2023/11/25 01:42:44;;;;;;;2.20;1.77;;;;;1.30;94938.00;;;;5054000;28;20429;-69
2023/11/25 01:45:33;;;;;;;3.00;2.50;;;;;1.50;94954.00;;;;5059105;28;20449;-71
2023/11/25 01:48:22;;;;;;;4.53;3.23;;;;;2.20;94955.00;;;;5060072;28;20431;-71
2023/11/25 01:51:11;;;;;;;1.53;1.33;;;;;2.30;94949.00;;;;5060703;28;20442;-71
2023/11/25 01:54:01;;;;;;;1.50;1.30;;;;;1.60;94966.00;;;;5062440;28;20478;-71
2023/11/25 01:56:54;;;;;;;1.77;1.63;;;;;1.80;94978.00;;;;5056493;28;20462;-71
2023/11/25 01:59:43;;;;;;;2.17;1.80;;;;;2.00;94966.00;;;;5060318;28;20433;-70
2023/11/25 02:02:34;;;;;;;2.20;1.90;;;;;2.00;94969.00;;;;5062632;28;20415;-71
2023/11/25 02:05:24;;;;;;;4.13;2.87;;;;;1.70;94958.00;;;;5064855;28;20454;-67
2023/11/25 02:08:14;;;;;;;2.67;1.80;;;;;2.10;94952.00;;;;5058309;28;20430;-70
2023/11/25 02:11:03;;;;;;;1.77;1.40;;;;;1.90;94966.00;;;;5061690;28;21350;-70
2023/11/25 02:13:53;;;;;;;2.50;1.73;;;;;1.70;94953.00;;;;5069114;28;20469;-70
2023/11/25 02:16:43;;;;;;;2.67;2.00;;;;;1.70;94948.00;;;;5067100;28;20448;-70
2023/11/25 02:19:32;;;;;;;3.30;2.53;;;;;1.90;94957.00;;;;5063539;28;20419;-69
2023/11/25 02:22:21;;;;;;;3.40;2.50;;;;;1.70;94955.00;;;;5065038;28;20978;-69
2023/11/25 02:25:14;;;;;;;2.47;1.93;;;;;1.80;94964.00;;;;5067327;28;20507;-71
2023/11/25 02:28:04;;;;;;;1.47;1.30;;;;;1.80;94952.00;;;;5065796;28;20489;-70
2023/11/25 02:30:53;;;;;;;2.27;2.00;;;;;1.70;94950.00;;;;5064843;28;20485;-70
2023/11/25 02:33:42;;;;;;;1.80;1.43;;;;;1.90;94956.00;;;;5067495;28;20469;-70
2023/11/25 02:36:31;;;;;;;3.33;2.70;;;;;1.00;94931.00;;;;5064664;28;20861;-70
2023/11/25 02:39:21;;;;;;;4.03;2.83;;;;;1.80;94927.00;;;;5067144;28;20439;-70
2023/11/25 02:42:13;;;;;;;2.03;1.63;;;;;2.20;94927.00;;;;5066802;28;20423;-67
2023/11/25 02:45:02;;;;;;;2.03;1.70;;;;;2.40;94931.00;;;;5064285;28;20997;-70
2023/11/25 02:47:52;;;;;;;2.80;1.97;;;;;2.50;94952.00;;;;5069980;28;20435;-69
2023/11/25 02:50:42;;;;;;;1.90;1.47;;;;;3.50;94969.00;;;;5072471;28;20440;-69
2023/11/25 02:53:32;;;;;;;2.80;2.37;;;;;2.70;94970.00;;;;5073680;28;20474;-70
2023/11/25 02:56:22;;;;;;;4.93;3.17;;;;;2.80;94976.00;;;;5064657;28;20461;-72
2023/11/25 02:59:12;;;;;;;2.33;1.73;;;;;2.80;94970.00;;;;5071711;28;20435;-73
2023/11/25 03:02:09;;;;;;;2.77;2.03;;;;;2.70;94970.00;;;;5062902;28;20439;-72
2023/11/25 03:04:58;;;;;;;2.67;1.97;;;;;2.70;94970.00;;;;5059762;28;20426;-72
2023/11/25 03:07:49;;;;;;;2.10;1.67;;;;;2.60;94985.00;;;;5069620;28;20422;-69
2023/11/25 03:10:41;;;;;;;1.73;1.43;;;;;2.60;94989.00;;;;5061122;28;20426;-70
2023/11/25 03:13:30;;;;;;;3.63;2.77;;;;;2.60;94987.00;;;;5054890;28;21184;-70
2023/11/25 03:16:24;;;;;;;3.97;2.63;;;;;2.40;94994.00;;;;5058354;28;20443;-67
2023/11/25 03:19:13;;;;;;;2.57;2.00;;;;;2.40;95004.00;;;;5065111;28;20442;-70
2023/11/25 03:22:02;;;;;;;2.53;1.87;;;;;2.30;94997.00;;;;5050630;28;20423;-70
2023/11/25 03:24:51;;;;;;;2.13;1.60;;;;;2.30;94989.00;;;;5061178;28;20444;-70
2023/11/25 03:27:40;;;;;;;1.53;1.30;;;;;2.40;94990.00;;;;5066311;28;20422;-70
2023/11/25 03:30:30;;;;;;;2.57;2.07;;;;;2.20;94989.00;;;;5061301;28;20426;-70
2023/11/25 03:33:20;;;;;;;1.33;1.10;;;;;2.10;94992.00;;;;5061843;28;20435;-70
2023/11/25 03:36:09;;;;;;;2.67;1.93;;;;;2.10;94996.00;;;;5064620;28;20438;-70
2023/11/25 03:38:58;;;;;;;2.40;1.93;;;;;2.10;94995.00;;;;5063152;28;20441;-70
2023/11/25 03:41:48;;;;;;;2.37;1.90;;;;;1.80;94990.00;;;;5060727;28;20434;-69
2023/11/25 03:44:37;;;;;;;2.70;2.33;;;;;2.20;94995.00;;;;5066843;28;20425;-70
2023/11/25 03:47:26;;;;;;;2.67;2.23;;;;;2.00;94995.00;;;;5059845;28;20433;-67
2023/11/25 03:50:16;;;;;;;2.70;2.30;;;;;1.60;94981.00;;;;5061929;28;20503;-70
2023/11/25 03:53:06;;;;;;;1.93;1.67;;;;;1.70;94980.00;;;;5058255;28;20439;-69
2023/11/25 03:55:55;;;;;;;2.03;1.77;;;;;1.70;94998.00;;;;5059684;28;20440;-69
2023/11/25 03:58:44;;;;;;;1.70;1.57;;;;;1.80;95000.00;;;;5057043;28;20426;-69
2023/11/25 04:01:33;;;;;;;2.60;2.40;;;;;1.90;94997.00;;;;5051854;28;20425;-69
2023/11/25 04:04:22;;;;;;;2.43;2.07;;;;;1.60;94997.00;;;;5057111;28;20427;-69
2023/11/25 04:07:13;;;;;;;1.57;1.47;;;;;1.60;95001.00;;;;5059763;28;20436;-69
2023/11/25 04:10:12;;;;;;;2.50;1.97;;;;;1.80;95017.00;;;;5056515;28;20439;-69
2023/11/25 04:13:01;;;;;;;1.77;1.60;;;;;1.80;95022.00;;;;5066063;28;21140;-69
2023/11/25 04:15:50;;;;;;;1.93;1.60;;;;;1.50;95021.00;;;;5056964;28;20438;-69
2023/11/25 04:18:41;;;;;;;1.93;1.60;;;;;1.10;95017.00;;;;5055216;28;20423;-67
2023/11/25 04:21:30;;;;;;;2.53;2.20;;;;;1.10;95010.00;;;;5058130;28;20429;-67
2023/11/25 04:24:22;;;;;;;1.43;1.33;;;;;1.70;95014.00;;;;5054234;28;20458;-67
2023/11/25 04:27:11;;;;;;;1.50;1.40;;;;;1.80;95013.00;;;;5066267;28;20434;-67
2023/11/25 04:30:00;;;;;;;2.43;2.07;;;;;2.10;95020.00;;;;5064184;28;20427;-67
2023/11/25 04:32:49;;;;;;;2.10;1.73;;;;;2.20;95016.00;;;;5059466;28;20434;-67
2023/11/25 04:35:39;;;;;;;1.63;1.40;;;;;2.20;95022.00;;;;5057983;28;20945;-67
2023/11/25 04:38:28;;;;;;;3.27;2.53;;;;;1.70;95014.00;;;;5056339;28;20443;-66
2023/11/25 04:41:19;;;;;;;1.90;1.70;;;;;1.10;95011.00;;;;5059981;28;20434;-66
2023/11/25 04:44:08;;;;;;;1.30;1.20;;;;;1.40;95013.00;;;;5054507;28;20474;-66
2023/11/25 04:46:57;;;;;;;2.30;1.83;;;;;2.00;95023.00;;;;5062640;28;20442;-67
2023/11/25 04:49:46;;;;;;;1.73;1.50;;;;;2.00;95021.00;;;;5059030;28;20434;-67
2023/11/25 04:52:35;;;;;;;2.07;1.87;;;;;1.90;95018.00;;;;5057387;28;20808;-67
2023/11/25 04:55:27;;;;;;;3.00;2.40;;;;;1.90;95024.00;;;;5064602;28;20447;-67
2023/11/25 04:58:18;;;;;;;1.40;1.30;;;;;2.00;95019.00;;;;5062504;28;21078;-67
2023/11/25 05:01:07;;;;;;;1.97;1.73;;;;;2.10;95037.00;;;;5066083;28;20430;-67
2023/11/25 05:03:56;;;;;;;1.40;1.30;;;;;2.20;95052.00;;;;5063657;28;20423;-67
2023/11/25 05:06:46;;;;;;;1.17;1.07;;;;;2.40;95070.00;;;;5063335;28;20469;-67
2023/11/25 05:09:38;;;;;;;2.60;2.40;;;;;1.90;95072.00;;;;5063572;28;20419;-66
2023/11/25 05:12:27;;;;;;;2.97;2.33;;;;;1.80;95056.00;;;;5060126;28;20430;-67
2023/11/25 05:15:18;;;;;;;1.50;1.40;;;;;1.90;95049.00;;;;5057948;28;20453;-67
2023/11/25 05:18:08;;;;;;;1.20;1.10;;;;;1.90;95049.00;;;;5059424;28;20453;-67
2023/11/25 05:20:58;;;;;;;2.37;1.97;;;;;2.10;95066.00;;;;5060844;28;20422;-66
2023/11/25 05:23:48;;;;;;;1.70;1.60;;;;;2.30;95072.00;;;;5058725;28;20434;-67
2023/11/25 05:26:37;;;;;;;2.60;2.33;;;;;1.70;95076.00;;;;5065188;28;20465;-67
2023/11/25 05:29:27;;;;;;;3.50;2.63;;;;;1.80;95085.00;;;;5061649;28;20433;-66
2023/11/25 05:32:17;;;;;;;1.70;1.47;;;;;1.90;95101.00;;;;5061475;28;20419;-66
2023/11/25 05:35:07;;;;;;;2.40;1.83;;;;;2.00;95098.00;;;;5061905;28;21197;-67
2023/11/25 05:37:56;;;;;;;2.33;1.87;;;;;1.40;95094.00;;;;5074166;28;20425;-67
2023/11/25 05:40:46;;;;;;;1.90;1.60;;;;;2.00;95101.00;;;;5065102;28;20435;-66
2023/11/25 05:43:35;;;;;;;2.93;2.40;;;;;2.50;95100.00;;;;5066820;28;20430;-66
2023/11/25 05:46:25;;;;;;;6.03;3.90;;;;;2.80;95098.00;;;;5062959;28;20852;-67
2023/11/25 05:49:15;;;;;;;2.13;1.77;;;;;2.90;95105.00;;;;5066848;28;20419;-67
2023/11/25 05:52:04;;;;;;;2.70;2.13;;;;;2.70;95104.00;;;;5063624;28;20447;-67
2023/11/25 05:54:55;;;;;;;2.63;1.90;;;;;2.80;95100.00;;;;5060556;28;20412;-67
2023/11/25 05:57:45;;;;;;;1.57;1.43;;;;;2.50;95108.00;;;;5061397;28;20430;-67
2023/11/25 06:00:34;;;;;;;3.33;2.53;;;;;2.60;95109.00;;;;5057719;28;20427;-68
2023/11/25 06:03:24;;;;;;;4.00;2.83;;;;;2.70;95117.00;;;;5058206;28;20946;-67
2023/11/25 06:06:14;;;;;;;3.17;2.17;;;;;2.10;95106.00;;;;5066862;28;20462;-68
2023/11/25 06:09:05;;;;;;;1.93;1.60;;;;;2.20;95111.00;;;;5070395;28;20422;-67
2023/11/25 06:11:54;;;;;;;2.13;1.67;;;;;2.20;95119.00;;;;5065411;28;20434;-68
2023/11/25 06:14:44;;;;;;;2.00;1.70;;;;;2.30;95124.00;;;;5060346;28;20450;-67
2023/11/25 06:17:33;;;;;;;3.40;2.67;;;;;2.40;95125.00;;;;5062222;28;20430;-68
2023/11/25 06:20:24;;;;;;;2.53;2.17;;;;;2.10;95140.00;;;;5069437;28;20433;-67
2023/11/25 06:23:15;;;;;;;2.50;1.90;;;;;1.80;95136.00;;;;5065719;28;20971;-68
2023/11/25 06:26:06;;;;;;;2.33;1.93;;;;;2.00;95157.00;;;;5066144;28;21004;-67
2023/11/25 06:28:55;;;;;;;1.50;1.33;;;;;1.90;95148.00;;;;5061623;28;20434;-67
2023/11/25 06:31:46;;;;;;;1.67;1.47;;;;;1.80;95154.00;;;;5065190;28;20846;-66
2023/11/25 06:34:35;;;;;;;2.23;2.03;;;;;2.00;95174.00;;;;5061613;28;20989;-68
2023/11/25 06:37:25;;;;;;;3.03;2.33;;;;;2.50;95187.00;;;;5061363;28;20948;-68
2023/11/25 06:40:15;;;;;;;4.00;3.00;;;;;2.10;95179.00;;;;5060546;28;20430;-67
2023/11/25 06:43:04;;;;;;;2.53;2.07;;;;;1.70;95179.00;;;;5059158;28;20435;-67
2023/11/25 06:45:54;;;;;;;2.33;1.93;;;;;1.80;95172.00;;;;5061433;28;20466;-68
2023/11/25 06:48:43;;;;;;;2.60;1.97;;;;;2.10;95172.00;;;;5058725;28;20438;-67
2023/11/25 06:51:32;;;;;;;4.73;3.60;;;;;2.30;95179.00;;;;5062252;28;20443;-68
2023/11/25 06:54:23;;;;;;;2.03;1.70;;;;;2.70;95172.00;;;;5057693;28;20435;-67
2023/11/25 06:57:15;;;;;;;1.63;1.37;;;;;3.00;95202.00;;;;5068047;28;20434;-68
2023/11/25 07:00:08;;;;;;;5.50;3.23;;;;;3.20;95191.00;;;;5068658;28;20748;-68
2023/11/25 07:02:57;;;;;;;3.47;2.40;;;;;3.20;95198.00;;;;5063888;28;20944;-67
2023/11/25 07:05:46;;;;;;;2.87;1.87;;;;;3.30;95204.00;;;;5062465;28;20474;-66
2023/11/25 07:08:35;;;;;;;5.17;3.30;;;;;3.30;95210.00;;;;5068047;28;20798;-67
2023/11/25 07:11:25;;;;;;;6.80;3.90;;;;;3.60;95220.00;;;;5061646;28;20446;-67
2023/11/25 07:14:15;;;;;;;3.27;2.17;;;;;3.90;95230.00;;;;5066651;28;20442;-67
2023/11/25 07:17:04;;;;;;;3.57;2.07;;;;;4.10;95239.00;;;;5066537;28;20454;-67
2023/11/25 07:19:53;;;;;;;5.23;2.93;;;;;4.30;95246.00;;;;5064358;28;21274;-67
2023/11/25 07:22:43;;;;;;;2.90;1.80;;;;;4.50;95255.00;;;;5062809;28;20450;-67
2023/11/25 07:25:32;;;;;;;5.77;3.60;;;;;4.80;95258.00;;;;5064102;28;20478;-66
2023/11/25 07:28:22;;;;;;;5.50;3.30;;;;;5.10;95253.00;;;;5058452;28;20525;-66
2023/11/25 07:31:12;;;;;;;5.83;3.30;;;;;5.20;95264.00;;;;5060954;28;20923;-67
2023/11/25 07:34:01;;;;;;;5.40;3.10;;;;;5.50;95274.00;;;;5059570;28;20215;-66
2023/11/25 07:36:50;;;;;;;6.87;3.83;;;;;5.20;95263.00;;;;5058977;28;20228;-67
2023/11/25 07:39:39;;;;;;;5.37;3.53;;;;;4.90;95273.00;;;;5062903;28;20212;-67
2023/11/25 07:42:28;;;;;;;7.90;4.37;;;;;5.70;95294.00;;;;5055340;28;20204;-67
2023/11/25 07:45:17;;;;;;;3.47;2.17;;;;;4.40;95280.00;;;;5063334;28;20232;-67
2023/11/25 07:48:08;;;;;;;3.03;1.90;;;;;5.20;95300.00;;;;5056771;28;20203;-67
2023/11/25 07:50:58;;;;;;;7.20;4.27;;;;;4.50;95284.00;;;;5064325;28;20204;-66
2023/11/25 07:53:47;;;;;;;3.07;1.93;;;;;4.90;95309.00;;;;5061263;28;20196;-67
2023/11/25 07:56:36;;;;;;;5.60;3.70;;;;;5.50;95295.00;;;;5061253;28;20216;-67
2023/11/25 07:59:25;;;;;;;5.77;3.20;;;;;5.40;95293.00;;;;5056422;28;20446;-66
2023/11/25 08:02:15;;;;;;;3.30;2.10;;;;;5.10;95293.00;;;;5060223;28;20204;-68
2023/11/25 08:05:06;;;;;;;6.10;3.77;;;;;5.10;95293.00;;;;5058320;28;20227;-66
2023/11/25 08:07:56;;;;;;;4.80;2.80;;;;;5.70;95311.00;;;;5065628;28;20196;-67
2023/11/25 08:10:45;;;;;;;3.10;1.90;;;;;4.90;95309.00;;;;5057453;28;20580;-67
2023/11/25 08:13:34;;;;;;;4.97;3.13;;;;;5.80;95319.00;;;;5055070;28;20633;-66
2023/11/25 08:16:24;;;;;;;4.93;2.93;;;;;4.80;95312.00;;;;5059303;28;20227;-65
2023/11/25 08:19:14;;;;;;;3.67;2.27;;;;;4.90;95302.00;;;;5060153;28;20594;-69
2023/11/25 08:22:05;;;;;;;4.30;2.73;;;;;5.00;95296.00;;;;5058156;28;20203;-65
2023/11/25 08:24:56;;;;;;;5.00;2.93;;;;;5.40;95318.00;;;;5058768;28;20196;-66
2023/11/25 08:27:45;;;;;;;3.07;1.93;;;;;5.90;95325.00;;;;5061736;28;20216;-67
2023/11/25 08:30:36;;;;;;;7.03;3.90;;;;;6.00;95326.00;;;;5060111;28;20197;-67
2023/11/25 08:33:25;;;;;;;3.30;1.90;;;;;6.10;95354.00;;;;5057010;28;20274;-64
2023/11/25 08:36:17;;;;;;;5.17;2.83;;;;;4.80;95359.00;;;;5061049;28;20223;-68
2023/11/25 08:39:08;;;;;;;4.17;2.40;;;;;5.10;95349.00;;;;5061154;28;20203;-65
2023/11/25 08:41:59;;;;;;;3.50;2.17;;;;;4.10;95337.00;;;;5056354;28;20219;-64
2023/11/25 08:44:50;;;;;;;3.97;2.27;;;;;5.00;95349.00;;;;5059002;28;20204;-66
2023/11/25 08:47:41;;;;;;;6.00;3.43;;;;;5.30;95332.00;;;;5056536;28;20224;-68
2023/11/25 08:50:31;;;;;;;6.67;3.57;;;;;5.10;95349.00;;;;5058268;28;20633;-65
2023/11/25 08:53:22;;;;;;;2.10;1.30;;;;;5.80;95361.00;;;;5057595;28;20724;-64
2023/11/25 08:56:13;;;;;;;6.80;3.47;;;;;5.50;95366.00;;;;5059647;28;20228;-66
2023/11/25 08:59:02;;;;;;;4.97;2.83;;;;;5.70;95363.00;;;;5060494;28;20196;-65
2023/11/25 09:01:54;;;;;;;6.67;3.30;;;;;5.40;95357.00;;;;5062076;28;20196;-65
2023/11/25 09:04:43;;;;;;;5.10;2.70;;;;;5.10;95364.00;;;;5058189;28;20212;-68
2023/11/25 09:07:32;;;;;;;11.30;5.53;;;;;5.80;95348.00;;;;5048933;22;20238;-71
2023/11/25 09:10:24;;;;;;;4.37;2.27;;;;;5.30;95354.00;;;;5020807;28;20300;-68
2023/11/25 09:13:15;;;;;;;2.33;1.20;;;;;6.00;95359.00;;;;5022695;28;20203;-69
2023/11/25 09:16:04;;;;;;;7.93;3.50;;;;;5.70;95330.00;;;;5027750;28;20228;-67
2023/11/25 09:18:54;;;;;;;9.47;4.07;;;;;6.30;95362.00;;;;5016558;28;20702;-68
2023/11/25 09:21:44;;;;;;;5.93;2.67;;;;;6.20;95365.00;;;;5014362;28;20202;-72
2023/11/25 09:24:33;;;;;;;9.80;4.27;;;;;6.30;95346.00;;;;5020460;28;20212;-69
2023/11/25 09:27:23;;;;;;;7.53;3.17;;;;;5.80;95351.00;;;;5020071;28;20229;-67
2023/11/25 09:30:17;;;;;;;8.53;3.73;;;;;5.50;95360.00;;;;5020521;28;20579;-71
2023/11/25 09:33:06;;;;;;;5.83;2.67;;;;;4.90;95354.00;;;;5032033;28;20220;-68
2023/11/25 09:35:56;;;;;;;8.13;3.43;;;;;6.10;95357.00;;;;5022485;28;20208;-69
2023/11/25 09:38:45;;;;;;;6.07;2.70;;;;;6.60;95377.00;;;;5028780;28;20578;-69
2023/11/25 09:41:34;;;;;;;8.80;3.77;;;;;6.80;95393.00;;;;5021439;28;20201;-70
2023/11/25 09:44:23;;;;;;;4.43;2.13;;;;;6.60;95370.00;;;;5017091;28;20216;-66
2023/11/25 09:47:14;;;;;;;4.07;1.93;;;;;6.70;95370.00;;;;5026522;28;20225;-69
2023/11/25 09:50:03;;;;;;;8.30;3.57;;;;;7.40;95382.00;;;;5019083;28;20831;-69
2023/11/25 09:52:54;;;;;;;6.43;2.90;;;;;6.50;95406.00;;;;5013437;28;20627;-71
2023/11/25 09:55:46;;;;;;;5.63;2.50;;;;;6.80;95402.00;;;;5014493;28;20544;-72
2023/11/25 09:58:36;;;;;;;11.60;4.97;;;;;6.50;95397.00;;;;5019009;28;20217;-67
2023/11/25 10:01:25;;;;;;;6.53;2.87;;;;;7.40;95381.00;;;;5020814;28;20202;-68
2023/11/25 10:04:17;;;;;;;3.50;1.50;;;;;7.70;95406.00;;;;5021037;28;20232;-70
2023/11/25 10:07:06;;;;;;;7.10;3.10;;;;;7.20;95384.00;;;;5018936;28;20624;-68
2023/11/25 10:09:56;;;;;;;5.23;2.33;;;;;7.30;95404.00;;;;5023685;28;20208;-72
2023/11/25 10:12:45;;;;;;;5.63;2.53;;;;;7.30;95399.00;;;;5018105;28;20202;-71
2023/11/25 10:15:46;;;;;;;5.47;2.40;;;;;7.40;95376.00;;;;5025772;28;20205;-68
2023/11/25 10:18:37;;;;;;;12.33;5.27;;;;;6.80;95397.00;;;;5024556;28;20274;-69
2023/11/25 10:21:29;;;;;;;10.50;4.23;;;;;7.90;95403.00;;;;5020906;28;20215;-71
2023/11/25 10:24:20;;;;;;;5.23;2.37;;;;;8.00;95403.00;;;;5031757;28;20572;-69
2023/11/25 10:27:10;;;;;;;5.67;2.67;;;;;6.40;95373.00;;;;5028667;28;20221;-68
2023/11/25 10:30:01;;;;;;;4.17;2.03;;;;;7.20;95388.00;;;;5023632;28;20212;-67
2023/11/25 10:32:54;;;;;;;6.40;2.93;;;;;8.00;95385.00;;;;5025248;28;20202;-68
2023/11/25 10:35:44;;;;;;;7.83;3.73;;;;;5.90;95360.00;;;;5025140;28;20217;-70
2023/11/25 10:38:34;;;;;;;7.27;3.23;;;;;7.10;95352.00;;;;5027149;28;20220;-72
2023/11/25 10:41:23;;;;;;;8.67;3.73;;;;;7.60;95364.00;;;;5031546;28;20209;-70
2023/11/25 10:44:13;;;;;;;4.63;2.23;;;;;7.20;95380.00;;;;5027329;28;20209;-69
2023/11/25 10:47:04;;;;;;;6.63;3.17;;;;;5.80;95372.00;;;;5029346;28;20602;-73
2023/11/25 10:49:53;;;;;;;4.83;2.37;;;;;7.70;95388.00;;;;5023431;28;20214;-72
2023/11/25 10:52:44;;;;;;;10.70;5.10;;;;;8.40;95392.00;;;;5016495;28;20217;-71
2023/11/25 10:55:35;;;;;;;9.73;4.37;;;;;8.10;95365.00;;;;5012962;28;20587;-72
2023/11/25 10:58:27;;;;;;;8.83;3.73;;;;;7.30;95384.00;;;;5014976;28;20628;-69
2023/11/25 11:01:16;;;;;;;3.43;1.67;;;;;7.30;95381.00;;;;5017574;28;20202;-68
2023/11/25 11:04:14;;;;;;;6.27;2.80;;;;;7.60;95388.00;;;;5015566;28;20591;-70
2023/11/25 11:07:05;;;;;;;10.90;4.80;;;;;8.10;95382.00;;;;5012522;28;20745;-69
2023/11/25 11:09:57;;;;;;;5.53;2.50;;;;;8.40;95384.00;;;;5015440;28;20251;-69
2023/11/25 11:12:54;;;;;;;5.50;2.43;;;;;9.30;95369.00;;;;5013115;28;20577;-70
2023/11/25 11:15:45;;;;;;;7.10;3.27;;;;;8.80;95373.00;;;;5016626;28;20202;-68
2023/11/25 11:18:36;;;;;;;12.30;5.13;;;;;9.30;95385.00;;;;5015894;28;20225;-71
2023/11/25 11:21:28;;;;;;;8.27;3.43;;;;;8.10;95372.00;;;;5015333;28;20213;-72
2023/11/25 11:24:22;;;;;;;9.67;4.07;;;;;9.10;95337.00;;;;5014645;28;20198;-70
2023/11/25 11:27:14;;;;;;;5.07;2.17;;;;;9.60;95352.00;;;;5016953;28;20240;-72
2023/11/25 11:30:11;;;;;;;6.57;2.80;;;;;9.10;95360.00;;;;5009863;28;20220;-68
2023/11/25 11:33:01;;;;;;;6.07;2.73;;;;;5.60;95378.00;;;;5022546;28;20228;-72
2023/11/25 11:35:50;;;;;;;3.60;1.70;;;;;8.00;95392.00;;;;5016192;28;20200;-70
2023/11/25 11:38:45;;;;;;;6.10;2.97;;;;;6.50;95372.00;;;;5017334;28;20761;-70
2023/11/25 11:41:35;;;;;;;8.00;4.00;;;;;6.60;95369.00;;;;5014614;28;20201;-71
2023/11/25 11:44:25;;;;;;;4.67;2.33;;;;;6.90;95343.00;;;;5013808;28;20210;-72
2023/11/25 11:47:15;;;;;;;3.63;1.83;;;;;8.10;95340.00;;;;5015955;28;20222;-69
2023/11/25 11:50:08;;;;;;;5.33;2.50;;;;;8.10;95354.00;;;;5016038;28;20712;-70
2023/11/25 11:53:14;;;;;;;3.67;1.77;;;;;8.00;95358.00;;;;5017264;28;20201;-71
2023/11/25 11:56:03;;;;;;;5.03;2.50;;;;;8.00;95347.00;;;;5012429;28;20221;-71
2023/11/25 11:58:59;;;;;;;4.50;2.23;;;;;8.30;95338.00;;;;5020107;28;20218;-72
2023/11/25 12:01:48;;;;;;;2.97;1.60;;;;;7.00;95349.00;;;;5009690;28;20225;-71
2023/11/25 12:04:40;;;;;;;5.47;2.93;;;;;9.10;95385.00;;;;5020770;28;20197;-70
2023/11/25 12:07:29;;;;;;;6.13;3.07;;;;;9.90;95369.00;;;;5021211;28;20621;-70
2023/11/25 12:10:19;;;;;;;5.10;2.77;;;;;6.20;95378.00;;;;5020308;28;20220;-69
2023/11/25 12:13:10;;;;;;;4.37;2.17;;;;;8.00;95369.00;;;;5026056;28;20201;-69
2023/11/25 12:16:01;;;;;;;4.00;2.03;;;;;6.20;95396.00;;;;5016196;28;20237;-68
2023/11/25 12:18:50;;;;;;;3.50;1.90;;;;;6.40;95397.00;;;;5016880;28;20225;-70
2023/11/25 12:21:40;;;;;;;6.10;3.40;;;;;6.30;95396.00;;;;5012723;28;20206;-71
2023/11/25 12:24:30;;;;;;;3.33;1.83;;;;;5.60;95383.00;;;;5011910;28;20209;-69
2023/11/25 12:27:19;;;;;;;2.97;1.77;;;;;7.20;95394.00;;;;5012496;28;20221;-68
2023/11/25 12:30:11;;;;;;;7.33;3.63;;;;;6.20;95410.00;;;;5016496;28;20213;-70
2023/11/25 12:33:00;;;;;;;3.17;1.83;;;;;6.00;95405.00;;;;5016794;28;20201;-68
2023/11/25 12:35:49;;;;;;;3.17;1.93;;;;;7.00;95404.00;;;;5021544;28;20219;-70
2023/11/25 12:38:39;;;;;;;5.67;3.17;;;;;6.20;95409.00;;;;5016013;28;20667;-68
2023/11/25 12:41:29;;;;;;;6.63;3.27;;;;;6.20;95400.00;;;;5009924;28;20221;-69
2023/11/25 12:44:20;;;;;;;2.53;1.53;;;;;7.10;95409.00;;;;5014521;28;20209;-69
2023/11/25 12:47:10;;;;;;;4.10;2.20;;;;;6.40;95404.00;;;;5013885;28;20606;-72
2023/11/25 12:50:11;;;;;;;4.43;2.10;;;;;7.70;95397.00;;;;5013614;28;20589;-70
2023/11/25 12:53:08;;;;;;;5.20;2.47;;;;;7.60;95412.00;;;;5014802;28;20212;-71
2023/11/25 12:55:59;;;;;;;7.83;3.53;;;;;5.40;95378.00;;;;5013092;28;20797;-70
2023/11/25 12:58:50;;;;;;;5.33;2.57;;;;;6.90;95406.00;;;;5014885;28;20240;-72
2023/11/25 13:01:40;;;;;;;7.77;3.57;;;;;8.00;95422.00;;;;5015893;28;20209;-70
2023/11/25 13:04:29;;;;;;;5.07;2.33;;;;;8.80;95430.00;;;;5010647;28;20206;-70
2023/11/25 13:07:30;;;;;;;5.13;2.20;;;;;7.60;95418.00;;;;5017447;28;20232;-71
2023/11/25 13:10:19;;;;;;;11.23;5.00;;;;;8.10;95434.00;;;;5019653;28;20201;-70
2023/11/25 13:13:09;;;;;;;6.33;2.73;;;;;7.80;95417.00;;;;5016141;28;20210;-70
2023/11/25 13:15:59;;;;;;;4.20;1.90;;;;;7.60;95423.00;;;;5020351;28;20243;-71
2023/11/25 13:18:48;;;;;;;4.20;2.00;;;;;6.90;95416.00;;;;5021202;28;20224;-72
2023/11/25 13:21:38;;;;;;;4.93;2.57;;;;;7.70;95416.00;;;;5018722;28;20197;-70
2023/11/25 13:24:27;;;;;;;3.13;1.57;;;;;9.10;95419.00;;;;5025589;28;20196;-70
2023/11/25 13:27:17;;;;;;;3.13;1.50;;;;;10.10;95433.00;;;;5027262;28;20227;-70
2023/11/25 13:30:10;;;;;;;9.80;3.87;;;;;8.70;95393.00;;;;5023987;28;20205;-69
2023/11/25 13:33:00;;;;;;;6.07;2.57;;;;;9.20;95403.00;;;;5020857;28;20205;-69
2023/11/25 13:35:49;;;;;;;4.27;1.87;;;;;10.40;95425.00;;;;5022175;28;20213;-70
2023/11/25 13:38:39;;;;;;;9.13;3.77;;;;;10.10;95432.00;;;;5021663;28;20228;-70
2023/11/25 13:41:28;;;;;;;6.80;2.80;;;;;9.70;95430.00;;;;5018233;28;20224;-67
2023/11/25 13:44:17;;;;;;;5.03;2.27;;;;;9.10;95432.00;;;;5016445;28;20213;-72
2023/11/25 13:47:08;;;;;;;4.70;2.17;;;;;8.80;95438.00;;;;5013523;28;20728;-70
2023/11/25 13:49:58;;;;;;;5.43;2.53;;;;;8.90;95412.00;;;;5016038;28;20201;-68
2023/11/25 13:52:47;;;;;;;3.83;1.80;;;;;9.80;95435.00;;;;5018777;28;20206;-71
2023/11/25 13:55:41;;;;;;;9.23;3.90;;;;;8.10;95440.00;;;;5015842;28;20257;-68
2023/11/25 13:58:30;;;;;;;9.60;4.20;;;;;6.60;95434.00;;;;5016362;28;20194;-70
2023/11/25 14:01:21;;;;;;;5.60;2.60;;;;;7.80;95438.00;;;;5012254;28;20205;-67
2023/11/25 14:04:11;;;;;;;6.50;2.87;;;;;8.30;95463.00;;;;5018673;28;20593;-68
2023/11/25 14:07:00;;;;;;;6.77;3.20;;;;;8.50;95469.00;;;;5014073;28;20234;-69
2023/11/25 14:09:49;;;;;;;5.03;2.33;;;;;7.70;95469.00;;;;5015379;28;20205;-69
2023/11/25 14:12:39;;;;;;;7.77;3.67;;;;;8.10;95483.00;;;;5015266;28;20588;-70
2023/11/25 14:15:28;;;;;;;4.63;2.27;;;;;7.80;95477.00;;;;5017390;28;20204;-69
2023/11/25 14:18:17;;;;;;;4.47;2.10;;;;;7.10;95480.00;;;;5016563;28;20220;-68
2023/11/25 14:21:08;;;;;;;5.37;2.47;;;;;6.60;95473.00;;;;5014762;28;20202;-69